METAR
Diposting tanggal: 20 Juli 2019

Pukul :

Isi :

METAR WAGI 200900Z 16005KT 8000 FEW012CB BKN012 28/24 Q1009 RMK CB TO NE AND E=